createdAt,value
2023-04-21T00:01:53.403Z,18.05
2023-04-21T00:04:20.110Z,17.17
2023-04-21T00:06:46.913Z,16.17
2023-04-21T00:09:13.457Z,16.35
2023-04-21T00:11:40.080Z,15.88
2023-04-21T00:14:06.736Z,15.70
2023-04-21T00:16:33.601Z,16.17
2023-04-21T00:19:00.394Z,15.98
2023-04-21T00:21:27.016Z,17.88
2023-04-21T00:23:53.831Z,17.77
2023-04-21T00:26:21.058Z,17.63
2023-04-21T00:28:47.691Z,17.35
2023-04-21T00:31:14.360Z,18.35
2023-04-21T00:33:40.950Z,20.63
2023-04-21T00:36:07.614Z,20.08
2023-04-21T00:38:34.206Z,20.85
2023-04-21T00:41:00.768Z,21.55
2023-04-21T00:43:27.396Z,22.13
2023-04-21T00:45:54.090Z,23.80
2023-04-21T00:48:20.661Z,25.08
2023-04-21T00:50:47.282Z,27.10
2023-04-21T00:53:15.264Z,25.42
2023-04-21T00:55:41.991Z,26.73
2023-04-21T00:58:08.690Z,27.42
2023-04-21T01:00:36.476Z,27.70
2023-04-21T01:03:04.680Z,30.10
2023-04-21T01:05:31.948Z,29.35
2023-04-21T01:07:58.758Z,31.10
2023-04-21T01:10:25.422Z,29.90
2023-04-21T01:12:52.010Z,31.42
2023-04-21T01:15:18.851Z,31.17
2023-04-21T01:17:45.587Z,30.73
2023-04-21T01:20:14.129Z,31.63
2023-04-21T01:22:42.429Z,30.95
2023-04-21T01:25:09.768Z,31.17
2023-04-21T01:27:36.545Z,31.75
2023-04-21T01:30:04.456Z,29.25
2023-04-21T01:32:32.356Z,30.48
2023-04-21T01:35:00.183Z,30.20
2023-04-21T01:37:30.686Z,31.42
2023-04-21T01:39:59.384Z,29.58
2023-04-21T01:42:28.305Z,30.95
2023-04-21T01:44:55.383Z,28.58
2023-04-21T01:47:23.988Z,30.65
2023-04-21T01:49:50.872Z,27.88
2023-04-21T01:52:17.782Z,28.05
2023-04-21T01:54:44.454Z,28.27
2023-04-21T01:57:11.123Z,26.98
2023-04-21T01:59:37.880Z,27.55
2023-04-21T02:02:04.926Z,27.17
2023-04-21T02:04:31.793Z,26.52
2023-04-21T02:06:58.422Z,25.33
2023-04-21T02:09:25.298Z,24.10
2023-04-21T02:11:52.004Z,25.38
2023-04-21T02:14:18.691Z,24.35
2023-04-21T02:16:45.453Z,24.23
2023-04-21T02:19:12.142Z,23.75
2023-04-21T02:21:38.794Z,25.40
2023-04-21T02:24:05.620Z,23.80
2023-04-21T02:26:32.251Z,23.75
2023-04-21T02:28:58.847Z,25.27
2023-04-21T02:31:25.530Z,23.77
2023-04-21T02:33:52.219Z,23.95
2023-04-21T02:36:18.988Z,24.52
2023-04-21T02:38:45.575Z,25.08
2023-04-21T02:41:12.133Z,23.80
2023-04-21T02:43:38.792Z,25.67
2023-04-21T02:46:09.085Z,25.42
2023-04-21T02:48:36.813Z,26.83
2023-04-21T02:51:04.524Z,27.05
2023-04-21T02:53:31.557Z,26.17
2023-04-21T02:55:58.236Z,26.33
2023-04-21T02:58:25.568Z,27.55
2023-04-21T03:00:52.232Z,27.40
2023-04-21T03:03:19.174Z,27.58
2023-04-21T03:05:46.113Z,28.17
2023-04-21T03:08:12.781Z,28.00
2023-04-21T03:10:39.812Z,28.48
2023-04-21T03:13:06.461Z,29.25
2023-04-21T03:15:33.099Z,28.52
2023-04-21T03:17:59.724Z,28.45
2023-04-21T03:20:26.360Z,30.17
2023-04-21T03:22:55.920Z,29.48
2023-04-21T03:25:22.798Z,30.35
2023-04-21T03:27:49.719Z,29.65
2023-04-21T03:30:16.357Z,30.95
2023-04-21T03:32:43.028Z,31.33
2023-04-21T03:35:09.875Z,31.55
2023-04-21T03:37:36.509Z,31.98
2023-04-21T03:40:06.164Z,33.33
2023-04-21T03:42:32.751Z,32.72
2023-04-21T03:45:04.254Z,34.03
2023-04-21T03:47:31.425Z,35.83
2023-04-21T03:49:58.102Z,35.60
2023-04-21T03:52:25.066Z,35.75
2023-04-21T03:54:51.648Z,35.63
2023-04-21T03:57:18.309Z,36.95
2023-04-21T03:59:44.885Z,37.13
2023-04-21T04:02:11.599Z,39.05
2023-04-21T04:04:38.420Z,39.55
2023-04-21T04:07:07.469Z,39.20
2023-04-21T04:09:34.057Z,40.00
2023-04-21T04:12:01.673Z,39.45
2023-04-21T04:14:28.426Z,38.17
2023-04-21T04:16:54.996Z,39.58
2023-04-21T04:19:21.763Z,39.30
2023-04-21T04:21:49.156Z,40.28
2023-04-21T04:24:15.997Z,41.88
2023-04-21T04:26:42.875Z,41.05
2023-04-21T04:29:10.726Z,39.10
2023-04-21T04:31:37.952Z,39.35
2023-04-21T04:34:05.024Z,42.75
2023-04-21T04:36:31.604Z,42.45
2023-04-21T04:38:58.680Z,40.72
2023-04-21T04:41:25.290Z,41.78
2023-04-21T04:43:52.275Z,42.97
2023-04-21T04:46:20.668Z,44.13
2023-04-21T04:48:47.702Z,44.50
2023-04-21T04:51:14.381Z,42.63
2023-04-21T04:53:40.898Z,43.92
2023-04-21T04:56:07.524Z,45.17
2023-04-21T04:58:34.206Z,45.15
2023-04-21T05:01:13.919Z,46.03
2023-04-21T05:03:40.741Z,46.10
2023-04-21T05:06:07.569Z,46.28
2023-04-21T05:08:34.136Z,45.90
2023-04-21T05:11:00.927Z,45.15
2023-04-21T05:13:27.814Z,46.60
2023-04-21T05:15:58.733Z,49.20
2023-04-21T05:18:25.654Z,51.05
2023-04-21T05:20:52.479Z,48.53
2023-04-21T05:23:19.390Z,51.30
2023-04-21T05:25:46.160Z,49.92
2023-04-21T05:28:12.927Z,51.50
2023-04-21T05:30:39.595Z,51.95
2023-04-21T05:33:06.221Z,53.13
2023-04-21T05:35:34.234Z,54.13
2023-04-21T05:38:02.375Z,54.13
2023-04-21T05:40:29.043Z,56.63
2023-04-21T05:42:55.622Z,57.95
2023-04-21T05:45:22.176Z,57.72
2023-04-21T05:47:48.847Z,57.80
2023-04-21T05:50:16.496Z,57.80
2023-04-21T05:52:43.207Z,58.97
2023-04-21T05:55:09.891Z,59.85
2023-04-21T05:57:36.648Z,57.25
2023-04-21T06:00:03.655Z,55.58
2023-04-21T06:02:31.022Z,58.15
2023-04-21T06:04:57.831Z,55.65
2023-04-21T06:07:24.588Z,56.20
2023-04-21T06:09:51.588Z,56.45
2023-04-21T06:12:18.218Z,56.78
2023-04-21T06:14:44.810Z,54.75
2023-04-21T06:17:11.457Z,53.17
2023-04-21T06:19:39.789Z,54.22
2023-04-21T06:22:07.438Z,52.67
2023-04-21T06:24:34.118Z,53.15
2023-04-21T06:27:01.750Z,50.78
2023-04-21T06:29:31.548Z,47.72
2023-04-21T06:31:58.177Z,47.80
2023-04-21T06:34:24.788Z,48.35
2023-04-21T06:36:51.511Z,46.30
2023-04-21T06:39:18.086Z,45.15
2023-04-21T06:41:44.746Z,44.08
2023-04-21T06:44:14.122Z,43.35
2023-04-21T06:46:42.290Z,40.45
2023-04-21T06:49:09.526Z,40.80
2023-04-21T06:51:37.486Z,39.22
2023-04-21T06:54:05.038Z,38.22
2023-04-21T06:56:32.846Z,37.45
2023-04-21T06:58:59.435Z,37.15
2023-04-21T07:01:26.048Z,35.75
2023-04-21T07:03:53.160Z,35.75
2023-04-21T07:06:19.942Z,34.08
2023-04-21T07:08:47.192Z,33.20
2023-04-21T07:11:13.874Z,31.95
2023-04-21T07:13:40.538Z,32.28
2023-04-21T07:16:07.361Z,31.52
2023-04-21T07:18:34.787Z,31.33
2023-04-21T07:21:01.512Z,31.05
2023-04-21T07:23:28.229Z,29.38
2023-04-21T07:25:55.037Z,28.75
2023-04-21T07:28:21.699Z,27.05
2023-04-21T07:30:48.499Z,28.45
2023-04-21T07:33:15.506Z,27.05
2023-04-21T07:35:42.333Z,25.73
2023-04-21T07:38:09.459Z,27.33
2023-04-21T07:40:36.057Z,29.23
2023-04-21T07:43:02.760Z,27.27
2023-04-21T07:45:29.374Z,26.27
2023-04-21T07:47:56.064Z,28.10
2023-04-21T07:50:22.953Z,26.83
2023-04-21T07:52:49.658Z,26.33
2023-04-21T07:55:16.624Z,26.33
2023-04-21T07:57:43.390Z,25.98
2023-04-21T08:00:10.909Z,24.77
2023-04-21T08:02:37.886Z,24.30
2023-04-21T08:05:05.107Z,24.02
2023-04-21T08:07:31.923Z,23.45
2023-04-21T08:09:58.547Z,23.85
2023-04-21T08:12:25.315Z,24.10
2023-04-21T08:14:51.945Z,23.27
2023-04-21T08:17:18.785Z,23.73
2023-04-21T08:19:45.813Z,22.77
2023-04-21T08:22:12.457Z,23.38
2023-04-21T08:24:39.813Z,21.85
2023-04-21T08:27:06.456Z,21.90
2023-04-21T08:29:33.215Z,20.52
2023-04-21T08:31:59.957Z,20.77
2023-04-21T08:34:27.880Z,23.92
2023-04-21T08:36:54.839Z,24.02
2023-04-21T08:39:21.869Z,24.55
2023-04-21T08:41:49.737Z,25.10
2023-04-21T08:44:16.456Z,23.35
2023-04-21T08:46:45.047Z,23.95
2023-04-21T08:49:13.224Z,27.38
2023-04-21T08:51:40.331Z,25.48
2023-04-21T08:54:08.509Z,24.73
2023-04-21T08:56:35.420Z,24.50
2023-04-21T08:59:01.990Z,23.05
2023-04-21T09:01:28.816Z,23.10
2023-04-21T09:04:16.443Z,22.60
2023-04-21T09:06:43.671Z,20.90
2023-04-21T09:09:10.527Z,22.25
2023-04-21T09:11:37.234Z,21.95
2023-04-21T09:14:03.873Z,21.63
2023-04-21T09:16:35.430Z,22.23
2023-04-21T09:19:02.143Z,22.05
2023-04-21T09:21:31.538Z,21.23
2023-04-21T09:24:05.515Z,20.85
2023-04-21T09:26:33.117Z,19.52
2023-04-21T09:29:00.670Z,19.92
2023-04-21T09:31:30.325Z,18.73
2023-04-21T09:34:00.375Z,19.77
2023-04-21T09:36:30.521Z,19.50
2023-04-21T09:39:24.331Z,18.77
2023-04-21T09:41:46.674Z,18.58
2023-04-21T09:44:13.297Z,19.50
2023-04-21T09:46:44.326Z,17.67
2023-04-21T09:49:13.855Z,17.55
2023-04-21T09:52:05.830Z,16.65
2023-04-21T09:54:34.454Z,17.50
2023-04-21T09:57:04.614Z,17.15
2023-04-21T09:59:40.881Z,18.45
2023-04-21T10:02:08.807Z,16.15
2023-04-21T10:04:37.802Z,17.23
2023-04-21T10:07:05.494Z,16.60
2023-04-21T10:09:56.313Z,16.60
2023-04-21T10:12:24.687Z,15.38
2023-04-21T10:14:56.161Z,15.65
2023-04-21T10:17:27.822Z,15.27
2023-04-21T10:19:58.498Z,15.15
2023-04-21T10:22:33.625Z,14.80
2023-04-21T10:25:04.838Z,15.00
2023-04-21T10:27:41.147Z,13.82
2023-04-21T10:30:22.769Z,13.57
2023-04-21T10:33:01.871Z,14.00
2023-04-21T10:35:58.487Z,11.98
2023-04-21T10:39:01.029Z,12.40
2023-04-21T10:41:32.660Z,12.07
2023-04-21T10:44:12.948Z,9.68
2023-04-21T10:46:41.654Z,11.23
2023-04-21T10:49:27.530Z,10.13
2023-04-21T10:52:02.799Z,10.07
2023-04-21T10:54:48.055Z,9.88
2023-04-21T10:57:19.643Z,12.57
2023-04-21T10:59:48.402Z,11.02
2023-04-21T11:02:16.609Z,13.60
2023-04-21T11:04:50.440Z,9.68
2023-04-21T11:07:23.111Z,10.73
2023-04-21T11:10:15.062Z,10.15
2023-04-21T11:12:41.860Z,8.93
2023-04-21T11:15:11.051Z,10.70
2023-04-21T11:17:43.926Z,8.45
2023-04-21T11:20:10.944Z,9.35
2023-04-21T11:22:38.638Z,8.70
2023-04-21T11:25:05.911Z,8.23
2023-04-21T11:27:32.536Z,9.50
2023-04-21T11:29:59.207Z,8.48
2023-04-21T11:32:25.954Z,9.85
2023-04-21T11:34:52.800Z,9.23
2023-04-21T11:37:27.998Z,10.23
2023-04-21T11:39:59.536Z,8.13
2023-04-21T11:42:26.746Z,7.97
2023-04-21T11:44:57.245Z,8.30
2023-04-21T11:47:28.224Z,7.15
2023-04-21T11:50:00.944Z,7.28
2023-04-21T11:52:32.879Z,6.53
2023-04-21T11:55:05.978Z,6.80
2023-04-21T11:57:33.787Z,7.80
2023-04-21T12:00:06.599Z,8.95
2023-04-21T12:02:33.607Z,7.45
2023-04-21T12:05:03.732Z,7.88
2023-04-21T12:07:32.559Z,8.00
2023-04-21T12:10:00.700Z,8.02
2023-04-21T12:12:27.776Z,8.77
2023-04-21T12:14:54.653Z,10.10
2023-04-21T12:17:21.627Z,10.95
2023-04-21T12:19:48.331Z,10.60
2023-04-21T12:22:18.216Z,10.70
2023-04-21T12:24:45.323Z,12.50
2023-04-21T12:27:14.003Z,10.93
2023-04-21T12:29:41.235Z,12.25
2023-04-21T12:32:17.673Z,12.38
2023-04-21T12:34:44.403Z,11.85
2023-04-21T12:37:11.160Z,12.63
2023-04-21T12:39:37.867Z,11.88
2023-04-21T12:42:04.607Z,12.00
2023-04-21T12:44:31.469Z,12.02
2023-04-21T12:47:00.838Z,11.70
2023-04-21T12:49:27.746Z,12.30
2023-04-21T12:51:56.741Z,11.68
2023-04-21T12:54:23.335Z,11.50
2023-04-21T12:56:49.988Z,12.98
2023-04-21T12:59:16.611Z,12.98
2023-04-21T13:01:44.139Z,11.23
2023-04-21T13:04:11.253Z,11.10
2023-04-21T13:06:39.168Z,11.35
2023-04-21T13:09:06.424Z,11.77
2023-04-21T13:11:33.427Z,12.90
2023-04-21T13:14:00.145Z,11.57
2023-04-21T13:16:30.309Z,11.52
2023-04-21T13:18:57.171Z,11.85
2023-04-21T13:21:23.856Z,10.75
2023-04-21T13:23:50.493Z,9.40
2023-04-21T13:26:18.309Z,10.45
2023-04-21T13:28:44.997Z,9.88
2023-04-21T13:31:11.666Z,9.55
2023-04-21T13:33:38.314Z,9.18
2023-04-21T13:36:05.096Z,10.75
2023-04-21T13:38:32.658Z,9.68
2023-04-21T13:40:59.323Z,9.82
2023-04-21T13:43:26.076Z,9.85
2023-04-21T13:45:52.888Z,9.40
2023-04-21T13:48:22.178Z,9.85
2023-04-21T13:50:49.107Z,10.80
2023-04-21T13:53:21.140Z,10.05
2023-04-21T13:55:48.251Z,10.87
2023-04-21T13:58:16.876Z,10.68
2023-04-21T14:00:43.998Z,11.73
2023-04-21T14:03:11.621Z,10.20
2023-04-21T14:05:39.066Z,10.05
2023-04-21T14:08:06.317Z,8.75
2023-04-21T14:10:33.246Z,10.93
2023-04-21T14:12:59.989Z,8.73
2023-04-21T14:15:27.040Z,9.40
2023-04-21T14:17:53.819Z,9.18
2023-04-21T14:20:21.151Z,10.30
2023-04-21T14:22:48.120Z,11.05
2023-04-21T14:25:14.923Z,10.40
2023-04-21T14:27:41.710Z,10.85
2023-04-21T14:30:09.277Z,11.35
2023-04-21T14:32:36.012Z,10.85
2023-04-21T14:35:04.029Z,11.27
2023-04-21T14:37:30.811Z,11.65
2023-04-21T14:39:57.675Z,11.25
2023-04-21T14:42:24.340Z,11.10
2023-04-21T14:44:51.278Z,11.05
2023-04-21T14:47:18.108Z,11.98
2023-04-21T14:49:44.971Z,10.85
2023-04-21T14:52:11.896Z,10.32
2023-04-21T14:54:38.718Z,9.45
2023-04-21T14:57:17.796Z,10.20
2023-04-21T14:59:46.730Z,9.60
2023-04-21T15:02:14.427Z,10.48
2023-04-21T15:04:41.494Z,8.93
2023-04-21T15:07:08.259Z,9.30
2023-04-21T15:09:36.090Z,8.35
2023-04-21T15:12:03.012Z,9.68
2023-04-21T15:14:29.774Z,9.43
2023-04-21T15:16:56.418Z,8.73
2023-04-21T15:19:25.418Z,10.15
2023-04-21T15:21:52.457Z,8.32
2023-04-21T15:24:19.148Z,10.70
2023-04-21T15:26:45.751Z,14.40
2023-04-21T15:29:12.345Z,9.38
2023-04-21T15:31:40.210Z,24.00
2023-04-21T15:34:07.062Z,7.85
2023-04-21T15:36:33.692Z,10.27
2023-04-21T15:39:00.490Z,7.60
2023-04-21T15:41:29.598Z,9.30
2023-04-21T15:43:56.267Z,8.50
2023-04-21T15:46:23.125Z,7.22
2023-04-21T15:48:49.934Z,7.45
2023-04-21T15:51:17.144Z,7.65
2023-04-21T15:53:47.789Z,11.10
2023-04-21T15:56:15.566Z,8.35
2023-04-21T15:58:42.964Z,7.53
2023-04-21T16:01:09.942Z,8.48
2023-04-21T16:03:37.088Z,7.05
2023-04-21T16:06:04.276Z,8.27
2023-04-21T16:08:33.239Z,7.45
2023-04-21T16:11:00.472Z,7.45
2023-04-21T16:13:27.311Z,7.15
2023-04-21T16:15:54.058Z,6.45
2023-04-21T16:18:20.982Z,6.88
2023-04-21T16:20:48.000Z,6.90
2023-04-21T16:23:15.336Z,7.35
2023-04-21T16:25:43.229Z,6.15
2023-04-21T16:28:11.576Z,3.72
2023-04-21T16:30:43.192Z,3.30
2023-04-21T16:33:11.540Z,3.95
2023-04-21T16:35:41.351Z,3.72
2023-04-21T16:38:08.234Z,2.15
2023-04-21T16:40:35.121Z,1.92
2023-04-21T16:43:01.831Z,3.10
2023-04-21T16:45:29.608Z,1.33
2023-04-21T16:47:57.617Z,1.40
2023-04-21T16:50:24.688Z,1.85
2023-04-21T16:52:51.571Z,2.28
2023-04-21T16:55:18.492Z,1.83
2023-04-21T16:57:45.335Z,1.58
2023-04-21T17:00:13.914Z,2.13
2023-04-21T17:02:40.690Z,1.75
2023-04-21T17:05:07.730Z,1.95
2023-04-21T17:07:34.697Z,2.10
2023-04-21T17:10:01.384Z,2.05
2023-04-21T17:12:28.103Z,4.47
2023-04-21T17:14:54.775Z,4.05
2023-04-21T17:17:21.445Z,3.13
2023-04-21T17:19:48.403Z,2.80
2023-04-21T17:22:15.109Z,3.97
2023-04-21T17:24:52.542Z,4.40
2023-04-21T17:27:21.350Z,3.40
2023-04-21T17:29:48.415Z,3.65
2023-04-21T17:32:15.194Z,3.28
2023-04-21T17:34:42.028Z,2.83
2023-04-21T17:37:09.694Z,3.40
2023-04-21T17:39:36.483Z,3.13
2023-04-21T17:42:03.155Z,3.13
2023-04-21T17:44:29.924Z,3.40
2023-04-21T17:46:58.308Z,3.50
2023-04-21T17:49:51.704Z,3.80
2023-04-21T17:52:18.827Z,4.00
2023-04-21T17:55:34.870Z,4.38
2023-04-21T18:05:17.512Z,4.47
2023-04-21T18:06:11.444Z,4.13
2023-04-21T18:08:26.902Z,4.38
2023-04-21T18:11:03.023Z,6.90
2023-04-21T18:21:01.595Z,5.07
2023-04-21T18:23:33.614Z,6.15
2023-04-21T18:29:33.409Z,12.13
2023-04-21T18:32:33.792Z,9.30
2023-04-21T18:38:22.866Z,6.93
2023-04-21T18:41:44.974Z,13.60
2023-04-21T18:48:06.492Z,5.15
2023-04-21T18:50:55.802Z,5.78
2023-04-21T18:53:28.274Z,5.60
2023-04-21T18:56:12.110Z,7.78
2023-04-21T19:01:16.525Z,16.02
2023-04-21T19:03:50.175Z,7.90
2023-04-21T19:06:49.672Z,8.07
2023-04-21T19:10:03.933Z,7.53
2023-04-21T19:12:48.636Z,7.40
2023-04-21T19:15:18.414Z,8.25
2023-04-21T19:18:07.750Z,8.23
2023-04-21T19:20:57.181Z,9.38
2023-04-21T19:23:53.409Z,18.42
2023-04-21T19:26:29.268Z,12.57
2023-04-21T19:29:02.018Z,10.10
2023-04-21T19:31:29.182Z,9.07
2023-04-21T19:33:55.931Z,7.20
2023-04-21T19:36:22.581Z,6.40
2023-04-21T19:38:49.768Z,6.60
2023-04-21T19:41:16.402Z,6.25
2023-04-21T19:43:43.239Z,6.50
2023-04-21T19:46:10.388Z,6.53
2023-04-21T19:48:37.851Z,6.72
2023-04-21T19:51:05.530Z,5.78
2023-04-21T19:53:32.324Z,5.93
2023-04-21T19:55:59.087Z,5.20
2023-04-21T19:58:39.727Z,5.50
2023-04-21T20:01:07.730Z,6.55
2023-04-21T20:03:34.755Z,6.90
2023-04-21T20:06:02.357Z,7.03
2023-04-21T20:08:29.467Z,6.40
2023-04-21T20:10:56.137Z,6.63
2023-04-21T20:13:23.035Z,7.00
2023-04-21T20:15:49.723Z,7.25
2023-04-21T20:18:16.407Z,6.70
2023-04-21T20:20:43.158Z,9.05
2023-04-21T20:23:09.825Z,7.47
2023-04-21T20:25:36.552Z,8.07
2023-04-21T20:28:03.200Z,7.65
2023-04-21T20:30:29.818Z,8.65
2023-04-21T20:32:56.458Z,8.50
2023-04-21T20:35:23.177Z,9.35
2023-04-21T20:37:50.441Z,10.02
2023-04-21T20:40:18.460Z,8.68
2023-04-21T20:42:45.256Z,8.15
2023-04-21T20:45:12.859Z,9.07
2023-04-21T20:47:39.920Z,10.35
2023-04-21T20:50:07.407Z,10.15
2023-04-21T20:52:34.499Z,10.23
2023-04-21T20:55:01.229Z,9.63
2023-04-21T20:57:28.023Z,9.30
2023-04-21T20:59:54.942Z,9.80
2023-04-21T21:02:21.670Z,9.23
2023-04-21T21:04:48.460Z,9.95
2023-04-21T21:07:15.406Z,9.95
2023-04-21T21:09:42.056Z,11.75
2023-04-21T21:12:08.814Z,9.88
2023-04-21T21:14:35.643Z,10.68
2023-04-21T21:17:05.587Z,12.05
2023-04-21T21:19:32.321Z,11.85
2023-04-21T21:21:59.001Z,10.57
2023-04-21T21:24:26.508Z,11.35
2023-04-21T21:26:53.182Z,11.07
2023-04-21T21:29:19.946Z,12.68
2023-04-21T21:31:46.648Z,12.25
2023-04-21T21:34:13.270Z,12.25
2023-04-21T21:36:39.912Z,11.82
2023-04-21T21:39:09.602Z,11.68
2023-04-21T21:41:38.268Z,11.65
2023-04-21T21:44:05.071Z,12.15
2023-04-21T21:46:31.852Z,12.88
2023-04-21T21:48:58.543Z,11.82
2023-04-21T21:51:25.477Z,13.10
2023-04-21T21:53:52.186Z,12.60
2023-04-21T21:56:19.054Z,11.88
2023-04-21T21:58:45.831Z,9.43
2023-04-21T22:01:15.145Z,10.05
2023-04-21T22:03:42.016Z,9.60
2023-04-21T22:06:09.321Z,10.27
2023-04-21T22:08:36.104Z,8.90
2023-04-21T22:11:03.810Z,8.55
2023-04-21T22:13:30.525Z,9.07
2023-04-21T22:15:57.149Z,9.07
2023-04-21T22:18:23.869Z,12.38
2023-04-21T22:20:50.628Z,12.93
2023-04-21T22:23:19.798Z,10.27
2023-04-21T22:25:46.346Z,11.65
2023-04-21T22:28:12.938Z,10.80
2023-04-21T22:30:39.606Z,11.73
2023-04-21T22:33:06.337Z,10.35
2023-04-21T22:35:32.899Z,11.95
2023-04-21T22:37:59.570Z,11.02
2023-04-21T22:40:26.270Z,13.00
2023-04-21T22:42:52.970Z,11.80
2023-04-21T22:45:19.560Z,7.15
2023-04-21T22:47:46.617Z,18.15
2023-04-21T22:50:14.908Z,11.13
2023-04-21T22:52:41.875Z,8.15
2023-04-21T22:55:09.417Z,8.60
2023-04-21T22:57:37.604Z,7.15
2023-04-21T23:00:06.581Z,11.35
2023-04-21T23:02:33.380Z,9.60
2023-04-21T23:05:00.134Z,8.40
2023-04-21T23:07:26.724Z,8.60
2023-04-21T23:09:53.397Z,8.70
2023-04-21T23:12:20.175Z,8.88
2023-04-21T23:14:48.302Z,9.05
2023-04-21T23:17:14.925Z,8.20
2023-04-21T23:19:42.093Z,8.60
2023-04-21T23:22:08.685Z,8.98
2023-04-21T23:24:35.647Z,9.57
2023-04-21T23:27:06.254Z,8.88
2023-04-21T23:29:32.938Z,8.90
2023-04-21T23:31:59.798Z,9.70
2023-04-21T23:34:26.418Z,9.18
2023-04-21T23:36:53.042Z,8.75
2023-04-21T23:39:21.628Z,8.75
2023-04-21T23:41:48.949Z,9.30
2023-04-21T23:44:15.736Z,8.77
2023-04-21T23:46:42.517Z,8.73
2023-04-21T23:49:09.098Z,8.95
2023-04-21T23:51:36.720Z,8.82
2023-04-21T23:54:03.483Z,9.25
2023-04-21T23:56:30.158Z,9.98
2023-04-21T23:58:56.797Z,10.75
